sensor_id;sensor_type;location;lat;lon;timestamp;temperature;humidity
11132;DHT22;5620;53.570;9.718;2022-08-03T00:00:42;21.20;99.90
11132;DHT22;5620;53.570;9.718;2022-08-03T00:03:09;21.20;99.90
11132;DHT22;5620;53.570;9.718;2022-08-03T00:05:35;21.20;99.90
11132;DHT22;5620;53.570;9.718;2022-08-03T00:08:04;21.20;99.90
11132;DHT22;5620;53.570;9.718;2022-08-03T00:10:31;21.20;99.90
11132;DHT22;5620;53.570;9.718;2022-08-03T00:12:59;21.20;99.90
11132;DHT22;5620;53.570;9.718;2022-08-03T00:15:26;21.10;99.90
11132;DHT22;5620;53.570;9.718;2022-08-03T00:17:53;21.10;99.90
11132;DHT22;5620;53.570;9.718;2022-08-03T00:20:21;21.10;99.90
11132;DHT22;5620;53.570;9.718;2022-08-03T00:22:48;21.00;99.90
11132;DHT22;5620;53.570;9.718;2022-08-03T00:25:17;21.00;99.90
11132;DHT22;5620;53.570;9.718;2022-08-03T00:27:45;20.90;99.90
11132;DHT22;5620;53.570;9.718;2022-08-03T00:30:12;20.80;99.90
11132;DHT22;5620;53.570;9.718;2022-08-03T00:32:40;20.80;1.00
11132;DHT22;5620;53.570;9.718;2022-08-03T00:35:07;20.70;1.00
11132;DHT22;5620;53.570;9.718;2022-08-03T00:37:32;20.70;1.00
11132;DHT22;5620;53.570;9.718;2022-08-03T00:40:01;20.60;1.00
11132;DHT22;5620;53.570;9.718;2022-08-03T00:42:28;20.60;1.00
11132;DHT22;5620;53.570;9.718;2022-08-03T00:44:55;20.60;1.00
11132;DHT22;5620;53.570;9.718;2022-08-03T00:47:21;20.60;1.00
11132;DHT22;5620;53.570;9.718;2022-08-03T00:49:47;20.50;1.00
11132;DHT22;5620;53.570;9.718;2022-08-03T00:52:14;20.60;1.00
11132;DHT22;5620;53.570;9.718;2022-08-03T00:54:41;20.50;1.00
11132;DHT22;5620;53.570;9.718;2022-08-03T00:57:10;20.50;1.00
11132;DHT22;5620;53.570;9.718;2022-08-03T00:59:37;20.50;1.00
11132;DHT22;5620;53.570;9.718;2022-08-03T01:02:02;20.40;1.00
11132;DHT22;5620;53.570;9.718;2022-08-03T01:04:28;20.40;1.00
11132;DHT22;5620;53.570;9.718;2022-08-03T01:07:32;20.40;1.00
11132;DHT22;5620;53.570;9.718;2022-08-03T01:11:23;20.40;7.60
11132;DHT22;5620;53.570;9.718;2022-08-03T01:13:45;20.40;3.40
11132;DHT22;5620;53.570;9.718;2022-08-03T01:25:09;20.30;10.00
11132;DHT22;5620;53.570;9.718;2022-08-03T01:28:28;20.40;19.70
11132;DHT22;5620;53.570;9.718;2022-08-03T01:31:02;20.30;22.00
11132;DHT22;5620;53.570;9.718;2022-08-03T01:33:40;20.40;10.80
11132;DHT22;5620;53.570;9.718;2022-08-03T01:36:47;20.40;17.90
11132;DHT22;5620;53.570;9.718;2022-08-03T01:39:05;20.30;22.10
11132;DHT22;5620;53.570;9.718;2022-08-03T01:41:36;20.30;27.00
11132;DHT22;5620;53.570;9.718;2022-08-03T01:44:07;20.30;43.20
11132;DHT22;5620;53.570;9.718;2022-08-03T01:46:34;20.20;54.90
11132;DHT22;5620;53.570;9.718;2022-08-03T01:49:11;20.30;68.40
11132;DHT22;5620;53.570;9.718;2022-08-03T01:51:40;20.20;75.60
11132;DHT22;5620;53.570;9.718;2022-08-03T01:54:12;20.20;84.30
11132;DHT22;5620;53.570;9.718;2022-08-03T01:56:40;20.30;91.90
11132;DHT22;5620;53.570;9.718;2022-08-03T01:59:09;20.30;95.40
11132;DHT22;5620;53.570;9.718;2022-08-03T02:01:36;20.30;97.80
11132;DHT22;5620;53.570;9.718;2022-08-03T02:04:05;20.30;99.20
11132;DHT22;5620;53.570;9.718;2022-08-03T02:06:33;20.30;99.90
11132;DHT22;5620;53.570;9.718;2022-08-03T02:09:03;20.30;99.90
11132;DHT22;5620;53.570;9.718;2022-08-03T02:11:42;20.20;99.90
11132;DHT22;5620;53.570;9.718;2022-08-03T02:14:10;20.20;99.90
11132;DHT22;5620;53.570;9.718;2022-08-03T02:16:38;20.10;99.90
11132;DHT22;5620;53.570;9.718;2022-08-03T02:19:07;20.10;99.90
11132;DHT22;5620;53.570;9.718;2022-08-03T02:21:37;20.10;99.90
11132;DHT22;5620;53.570;9.718;2022-08-03T02:24:12;20.00;99.90
11132;DHT22;5620;53.570;9.718;2022-08-03T02:26:41;20.00;99.90
11132;DHT22;5620;53.570;9.718;2022-08-03T02:29:14;20.00;99.90
11132;DHT22;5620;53.570;9.718;2022-08-03T02:31:41;20.00;99.90
11132;DHT22;5620;53.570;9.718;2022-08-03T02:34:12;20.00;99.90
11132;DHT22;5620;53.570;9.718;2022-08-03T02:36:39;20.00;99.90
11132;DHT22;5620;53.570;9.718;2022-08-03T02:39:10;20.00;99.90
11132;DHT22;5620;53.570;9.718;2022-08-03T02:41:50;20.00;99.90
11132;DHT22;5620;53.570;9.718;2022-08-03T02:44:22;20.00;99.90
11132;DHT22;5620;53.570;9.718;2022-08-03T02:46:56;20.00;99.90
11132;DHT22;5620;53.570;9.718;2022-08-03T02:49:26;20.00;99.90
11132;DHT22;5620;53.570;9.718;2022-08-03T02:51:56;20.00;99.90
11132;DHT22;5620;53.570;9.718;2022-08-03T02:54:25;20.00;99.90
11132;DHT22;5620;53.570;9.718;2022-08-03T02:56:54;19.90;99.90
11132;DHT22;5620;53.570;9.718;2022-08-03T02:59:22;19.90;99.90
11132;DHT22;5620;53.570;9.718;2022-08-03T03:01:57;19.80;99.90
11132;DHT22;5620;53.570;9.718;2022-08-03T03:04:27;19.80;99.90
11132;DHT22;5620;53.570;9.718;2022-08-03T03:06:56;19.80;99.90
11132;DHT22;5620;53.570;9.718;2022-08-03T03:09:23;19.70;99.90
11132;DHT22;5620;53.570;9.718;2022-08-03T03:11:51;19.70;99.90
11132;DHT22;5620;53.570;9.718;2022-08-03T03:14:19;19.70;99.90
11132;DHT22;5620;53.570;9.718;2022-08-03T03:16:49;19.60;1.00
11132;DHT22;5620;53.570;9.718;2022-08-03T03:19:16;19.60;1.00
11132;DHT22;5620;53.570;9.718;2022-08-03T03:21:44;19.60;1.00
11132;DHT22;5620;53.570;9.718;2022-08-03T03:24:11;19.50;1.00
11132;DHT22;5620;53.570;9.718;2022-08-03T03:26:41;19.50;1.00
11132;DHT22;5620;53.570;9.718;2022-08-03T03:29:07;19.50;1.00
11132;DHT22;5620;53.570;9.718;2022-08-03T03:31:34;19.50;1.00
11132;DHT22;5620;53.570;9.718;2022-08-03T03:34:05;19.50;1.00
11132;DHT22;5620;53.570;9.718;2022-08-03T03:36:32;19.50;1.00
11132;DHT22;5620;53.570;9.718;2022-08-03T03:38:59;19.50;1.00
11132;DHT22;5620;53.570;9.718;2022-08-03T03:41:26;19.50;1.00
11132;DHT22;5620;53.570;9.718;2022-08-03T03:43:52;19.50;1.00
11132;DHT22;5620;53.570;9.718;2022-08-03T03:46:20;19.40;1.00
11132;DHT22;5620;53.570;9.718;2022-08-03T03:48:48;19.40;10.10
11132;DHT22;5620;53.570;9.718;2022-08-03T03:51:15;19.40;32.10
11132;DHT22;5620;53.570;9.718;2022-08-03T03:53:58;19.40;34.50
11132;DHT22;5620;53.570;9.718;2022-08-03T03:56:26;19.40;64.90
11132;DHT22;5620;53.570;9.718;2022-08-03T03:58:54;19.40;76.40
11132;DHT22;5620;53.570;9.718;2022-08-03T04:01:19;19.40;97.00
11132;DHT22;5620;53.570;9.718;2022-08-03T04:03:46;19.40;99.90
11132;DHT22;5620;53.570;9.718;2022-08-03T04:06:14;19.40;99.90
11132;DHT22;5620;53.570;9.718;2022-08-03T04:08:41;19.40;99.90
11132;DHT22;5620;53.570;9.718;2022-08-03T04:11:17;19.40;99.90
11132;DHT22;5620;53.570;9.718;2022-08-03T04:14:05;19.40;99.90
11132;DHT22;5620;53.570;9.718;2022-08-03T04:16:36;19.50;99.90
11132;DHT22;5620;53.570;9.718;2022-08-03T04:19:08;19.50;99.90
11132;DHT22;5620;53.570;9.718;2022-08-03T04:21:37;19.50;99.90
11132;DHT22;5620;53.570;9.718;2022-08-03T04:24:08;19.50;99.90
11132;DHT22;5620;53.570;9.718;2022-08-03T04:26:38;19.60;99.90
11132;DHT22;5620;53.570;9.718;2022-08-03T04:29:08;19.60;99.90
11132;DHT22;5620;53.570;9.718;2022-08-03T04:31:39;19.60;99.90
11132;DHT22;5620;53.570;9.718;2022-08-03T04:34:08;19.70;99.90
11132;DHT22;5620;53.570;9.718;2022-08-03T04:36:43;19.70;99.90
11132;DHT22;5620;53.570;9.718;2022-08-03T04:39:23;19.80;99.90
11132;DHT22;5620;53.570;9.718;2022-08-03T04:41:53;19.80;99.90
11132;DHT22;5620;53.570;9.718;2022-08-03T04:44:26;19.80;99.90
11132;DHT22;5620;53.570;9.718;2022-08-03T04:46:53;19.90;99.90
11132;DHT22;5620;53.570;9.718;2022-08-03T04:49:19;19.90;99.70
11132;DHT22;5620;53.570;9.718;2022-08-03T04:51:47;20.00;86.30
11132;DHT22;5620;53.570;9.718;2022-08-03T04:54:14;20.10;63.40
11132;DHT22;5620;53.570;9.718;2022-08-03T04:56:41;20.10;39.30
11132;DHT22;5620;53.570;9.718;2022-08-03T04:59:08;20.20;15.70
11132;DHT22;5620;53.570;9.718;2022-08-03T05:01:35;20.30;1.00
11132;DHT22;5620;53.570;9.718;2022-08-03T05:04:01;20.30;1.00
11132;DHT22;5620;53.570;9.718;2022-08-03T05:06:27;20.40;1.00
11132;DHT22;5620;53.570;9.718;2022-08-03T05:08:52;20.50;1.00
11132;DHT22;5620;53.570;9.718;2022-08-03T05:11:19;20.60;1.00
11132;DHT22;5620;53.570;9.718;2022-08-03T05:13:46;20.60;1.00
11132;DHT22;5620;53.570;9.718;2022-08-03T05:16:14;20.70;1.00
11132;DHT22;5620;53.570;9.718;2022-08-03T05:18:41;20.80;99.90
11132;DHT22;5620;53.570;9.718;2022-08-03T05:21:09;20.90;99.90
11132;DHT22;5620;53.570;9.718;2022-08-03T05:23:36;21.10;99.90
11132;DHT22;5620;53.570;9.718;2022-08-03T05:26:03;21.40;99.90
11132;DHT22;5620;53.570;9.718;2022-08-03T05:28:30;21.50;99.90
11132;DHT22;5620;53.570;9.718;2022-08-03T05:31:01;21.50;96.90
11132;DHT22;5620;53.570;9.718;2022-08-03T05:33:28;21.60;68.90
11132;DHT22;5620;53.570;9.718;2022-08-03T05:35:56;21.70;25.90
11132;DHT22;5620;53.570;9.718;2022-08-03T05:38:23;21.70;1.00
11132;DHT22;5620;53.570;9.718;2022-08-03T05:40:49;21.80;1.00
11132;DHT22;5620;53.570;9.718;2022-08-03T05:43:16;21.90;1.00
11132;DHT22;5620;53.570;9.718;2022-08-03T05:45:43;22.00;1.00
11132;DHT22;5620;53.570;9.718;2022-08-03T05:48:10;22.20;1.00
11132;DHT22;5620;53.570;9.718;2022-08-03T05:50:39;22.80;1.00
11132;DHT22;5620;53.570;9.718;2022-08-03T05:53:06;23.60;1.00
11132;DHT22;5620;53.570;9.718;2022-08-03T05:55:33;23.80;99.90
11132;DHT22;5620;53.570;9.718;2022-08-03T05:58:00;23.60;99.90
11132;DHT22;5620;53.570;9.718;2022-08-03T06:00:28;23.40;99.90
11132;DHT22;5620;53.570;9.718;2022-08-03T06:02:55;23.30;99.90
11132;DHT22;5620;53.570;9.718;2022-08-03T06:05:22;23.20;99.90
11132;DHT22;5620;53.570;9.718;2022-08-03T06:07:50;23.10;99.90
11132;DHT22;5620;53.570;9.718;2022-08-03T06:10:16;23.10;99.90
11132;DHT22;5620;53.570;9.718;2022-08-03T06:12:42;23.10;99.90
11132;DHT22;5620;53.570;9.718;2022-08-03T06:15:08;23.20;99.90
11132;DHT22;5620;53.570;9.718;2022-08-03T06:17:44;23.20;99.90
11132;DHT22;5620;53.570;9.718;2022-08-03T06:20:11;23.30;99.90
11132;DHT22;5620;53.570;9.718;2022-08-03T06:22:37;23.30;99.90
11132;DHT22;5620;53.570;9.718;2022-08-03T06:25:06;23.40;99.90
11132;DHT22;5620;53.570;9.718;2022-08-03T06:27:33;23.50;99.90
11132;DHT22;5620;53.570;9.718;2022-08-03T06:29:58;23.60;99.90
11132;DHT22;5620;53.570;9.718;2022-08-03T06:32:27;23.60;99.90
11132;DHT22;5620;53.570;9.718;2022-08-03T06:34:53;23.70;99.90
11132;DHT22;5620;53.570;9.718;2022-08-03T06:37:21;23.80;99.90
11132;DHT22;5620;53.570;9.718;2022-08-03T06:39:48;23.80;99.90
11132;DHT22;5620;53.570;9.718;2022-08-03T06:42:16;23.90;99.90
11132;DHT22;5620;53.570;9.718;2022-08-03T06:44:42;23.90;99.90
11132;DHT22;5620;53.570;9.718;2022-08-03T06:47:08;24.00;99.90
11132;DHT22;5620;53.570;9.718;2022-08-03T06:49:35;24.00;99.90
11132;DHT22;5620;53.570;9.718;2022-08-03T06:52:03;24.10;99.90
11132;DHT22;5620;53.570;9.718;2022-08-03T06:54:28;24.20;99.90
11132;DHT22;5620;53.570;9.718;2022-08-03T06:56:55;24.20;99.90
11132;DHT22;5620;53.570;9.718;2022-08-03T06:59:23;24.30;99.90
11132;DHT22;5620;53.570;9.718;2022-08-03T07:01:50;24.40;99.90
11132;DHT22;5620;53.570;9.718;2022-08-03T07:04:18;24.50;99.90
11132;DHT22;5620;53.570;9.718;2022-08-03T07:06:47;24.50;99.90
11132;DHT22;5620;53.570;9.718;2022-08-03T07:09:12;24.60;99.90
11132;DHT22;5620;53.570;9.718;2022-08-03T07:11:39;24.70;99.90
11132;DHT22;5620;53.570;9.718;2022-08-03T07:14:08;24.80;99.90
11132;DHT22;5620;53.570;9.718;2022-08-03T07:16:35;25.00;99.90
11132;DHT22;5620;53.570;9.718;2022-08-03T07:19:01;25.10;99.90
11132;DHT22;5620;53.570;9.718;2022-08-03T07:21:30;25.10;99.90
11132;DHT22;5620;53.570;9.718;2022-08-03T07:23:56;25.10;43.60
11132;DHT22;5620;53.570;9.718;2022-08-03T07:26:23;25.20;27.20
11132;DHT22;5620;53.570;9.718;2022-08-03T07:28:50;25.40;11.80
11132;DHT22;5620;53.570;9.718;2022-08-03T07:31:15;25.40;1.00
11132;DHT22;5620;53.570;9.718;2022-08-03T07:33:41;25.50;1.00
11132;DHT22;5620;53.570;9.718;2022-08-03T07:36:06;25.70;1.00
11132;DHT22;5620;53.570;9.718;2022-08-03T07:38:34;25.80;1.00
11132;DHT22;5620;53.570;9.718;2022-08-03T07:41:00;26.00;1.00
11132;DHT22;5620;53.570;9.718;2022-08-03T07:43:26;26.00;1.00
11132;DHT22;5620;53.570;9.718;2022-08-03T07:45:52;26.00;1.00
11132;DHT22;5620;53.570;9.718;2022-08-03T07:48:19;26.10;1.00
11132;DHT22;5620;53.570;9.718;2022-08-03T07:50:45;26.10;1.00
11132;DHT22;5620;53.570;9.718;2022-08-03T07:53:12;26.20;1.00
11132;DHT22;5620;53.570;9.718;2022-08-03T07:55:39;26.30;1.00
11132;DHT22;5620;53.570;9.718;2022-08-03T07:58:11;26.40;1.00
11132;DHT22;5620;53.570;9.718;2022-08-03T08:00:38;26.40;1.00
11132;DHT22;5620;53.570;9.718;2022-08-03T08:03:05;26.50;1.00
11132;DHT22;5620;53.570;9.718;2022-08-03T08:05:32;26.60;1.00
11132;DHT22;5620;53.570;9.718;2022-08-03T08:08:03;26.60;1.00
11132;DHT22;5620;53.570;9.718;2022-08-03T08:10:30;26.60;1.00
11132;DHT22;5620;53.570;9.718;2022-08-03T08:12:57;26.60;1.00
11132;DHT22;5620;53.570;9.718;2022-08-03T08:15:27;26.60;1.00
11132;DHT22;5620;53.570;9.718;2022-08-03T08:17:57;26.70;1.00
11132;DHT22;5620;53.570;9.718;2022-08-03T08:20:26;26.80;1.00
11132;DHT22;5620;53.570;9.718;2022-08-03T08:22:53;26.90;1.00
11132;DHT22;5620;53.570;9.718;2022-08-03T08:25:19;27.00;1.00
11132;DHT22;5620;53.570;9.718;2022-08-03T08:27:48;27.10;1.00
11132;DHT22;5620;53.570;9.718;2022-08-03T08:30:17;27.20;1.00
11132;DHT22;5620;53.570;9.718;2022-08-03T08:32:45;27.20;1.00
11132;DHT22;5620;53.570;9.718;2022-08-03T08:35:12;27.20;1.00
11132;DHT22;5620;53.570;9.718;2022-08-03T08:37:41;27.30;1.00
11132;DHT22;5620;53.570;9.718;2022-08-03T08:40:07;27.30;1.00
11132;DHT22;5620;53.570;9.718;2022-08-03T08:42:36;27.30;1.00
11132;DHT22;5620;53.570;9.718;2022-08-03T08:45:10;27.40;1.00
11132;DHT22;5620;53.570;9.718;2022-08-03T08:47:43;27.50;1.00
11132;DHT22;5620;53.570;9.718;2022-08-03T08:50:21;27.60;1.00
11132;DHT22;5620;53.570;9.718;2022-08-03T08:52:50;27.60;1.00
11132;DHT22;5620;53.570;9.718;2022-08-03T08:55:23;27.50;1.00
11132;DHT22;5620;53.570;9.718;2022-08-03T08:58:10;27.50;1.00
11132;DHT22;5620;53.570;9.718;2022-08-03T09:00:36;27.50;1.00
11132;DHT22;5620;53.570;9.718;2022-08-03T09:03:02;27.60;1.00
11132;DHT22;5620;53.570;9.718;2022-08-03T09:05:30;27.80;1.00
11132;DHT22;5620;53.570;9.718;2022-08-03T09:07:56;27.80;1.00
11132;DHT22;5620;53.570;9.718;2022-08-03T09:10:23;27.80;1.00
11132;DHT22;5620;53.570;9.718;2022-08-03T09:12:51;27.90;1.00
11132;DHT22;5620;53.570;9.718;2022-08-03T09:15:38;27.90;1.00
11132;DHT22;5620;53.570;9.718;2022-08-03T09:18:04;28.10;1.00
11132;DHT22;5620;53.570;9.718;2022-08-03T09:20:32;28.20;1.00
11132;DHT22;5620;53.570;9.718;2022-08-03T09:23:05;28.30;1.00
11132;DHT22;5620;53.570;9.718;2022-08-03T09:25:42;28.20;1.00
11132;DHT22;5620;53.570;9.718;2022-08-03T09:28:15;28.30;1.00
11132;DHT22;5620;53.570;9.718;2022-08-03T09:30:44;28.30;1.00
11132;DHT22;5620;53.570;9.718;2022-08-03T09:33:12;28.30;1.00
11132;DHT22;5620;53.570;9.718;2022-08-03T09:35:46;28.20;1.00
11132;DHT22;5620;53.570;9.718;2022-08-03T09:38:30;28.20;1.00
11132;DHT22;5620;53.570;9.718;2022-08-03T09:40:58;28.20;1.00
11132;DHT22;5620;53.570;9.718;2022-08-03T09:43:25;28.20;1.00
11132;DHT22;5620;53.570;9.718;2022-08-03T09:45:50;28.30;1.00
11132;DHT22;5620;53.570;9.718;2022-08-03T09:48:28;28.40;1.00
11132;DHT22;5620;53.570;9.718;2022-08-03T09:51:00;28.40;1.00
11132;DHT22;5620;53.570;9.718;2022-08-03T09:53:28;28.50;1.00
11132;DHT22;5620;53.570;9.718;2022-08-03T09:56:00;28.60;1.00
11132;DHT22;5620;53.570;9.718;2022-08-03T09:58:29;28.70;1.00
11132;DHT22;5620;53.570;9.718;2022-08-03T10:01:14;28.70;1.00
11132;DHT22;5620;53.570;9.718;2022-08-03T10:03:39;28.60;1.00
11132;DHT22;5620;53.570;9.718;2022-08-03T10:06:25;28.60;1.00
11132;DHT22;5620;53.570;9.718;2022-08-03T10:09:27;28.80;1.00
11132;DHT22;5620;53.570;9.718;2022-08-03T10:11:53;28.80;1.00
11132;DHT22;5620;53.570;9.718;2022-08-03T10:14:20;28.90;1.00
11132;DHT22;5620;53.570;9.718;2022-08-03T10:16:49;29.00;1.00
11132;DHT22;5620;53.570;9.718;2022-08-03T10:19:16;29.10;1.00
11132;DHT22;5620;53.570;9.718;2022-08-03T10:22:27;29.30;1.00
11132;DHT22;5620;53.570;9.718;2022-08-03T10:25:03;29.50;1.00
11132;DHT22;5620;53.570;9.718;2022-08-03T10:27:39;29.70;1.00
11132;DHT22;5620;53.570;9.718;2022-08-03T10:30:09;29.90;1.00
11132;DHT22;5620;53.570;9.718;2022-08-03T10:33:12;30.10;1.00
11132;DHT22;5620;53.570;9.718;2022-08-03T10:35:51;30.30;1.00
11132;DHT22;5620;53.570;9.718;2022-08-03T10:38:22;30.40;1.00
11132;DHT22;5620;53.570;9.718;2022-08-03T10:40:54;30.30;1.00
11132;DHT22;5620;53.570;9.718;2022-08-03T10:43:44;30.10;1.00
11132;DHT22;5620;53.570;9.718;2022-08-03T10:46:13;30.10;1.00
11132;DHT22;5620;53.570;9.718;2022-08-03T10:48:41;30.20;1.00
11132;DHT22;5620;53.570;9.718;2022-08-03T10:51:07;30.50;1.00
11132;DHT22;5620;53.570;9.718;2022-08-03T10:53:39;30.80;1.00
11132;DHT22;5620;53.570;9.718;2022-08-03T10:59:11;31.40;1.00
11132;DHT22;5620;53.570;9.718;2022-08-03T11:01:57;31.70;1.00
11132;DHT22;5620;53.570;9.718;2022-08-03T11:04:25;31.60;1.00
11132;DHT22;5620;53.570;9.718;2022-08-03T11:07:20;31.80;1.00
11132;DHT22;5620;53.570;9.718;2022-08-03T11:09:58;32.50;1.00
11132;DHT22;5620;53.570;9.718;2022-08-03T11:12:32;33.50;1.00
11132;DHT22;5620;53.570;9.718;2022-08-03T11:15:31;35.00;1.00
11132;DHT22;5620;53.570;9.718;2022-08-03T11:18:08;37.10;99.90
11132;DHT22;5620;53.570;9.718;2022-08-03T11:20:55;39.10;99.90
11132;DHT22;5620;53.570;9.718;2022-08-03T11:23:45;40.40;99.90
11132;DHT22;5620;53.570;9.718;2022-08-03T11:26:30;41.10;99.90
11132;DHT22;5620;53.570;9.718;2022-08-03T11:29:29;41.10;99.90
11132;DHT22;5620;53.570;9.718;2022-08-03T11:32:05;40.80;99.90
11132;DHT22;5620;53.570;9.718;2022-08-03T11:34:30;42.00;99.90
11132;DHT22;5620;53.570;9.718;2022-08-03T11:37:22;43.20;99.90
11132;DHT22;5620;53.570;9.718;2022-08-03T11:39:51;44.00;99.90
11132;DHT22;5620;53.570;9.718;2022-08-03T11:45:11;45.50;99.90
11132;DHT22;5620;53.570;9.718;2022-08-03T11:47:38;45.20;99.90
11132;DHT22;5620;53.570;9.718;2022-08-03T11:50:06;44.40;99.90
11132;DHT22;5620;53.570;9.718;2022-08-03T11:52:37;44.50;99.90
11132;DHT22;5620;53.570;9.718;2022-08-03T11:55:09;45.30;99.90
11132;DHT22;5620;53.570;9.718;2022-08-03T11:57:39;45.90;99.90
11132;DHT22;5620;53.570;9.718;2022-08-03T12:00:30;45.90;99.90
11132;DHT22;5620;53.570;9.718;2022-08-03T12:03:04;46.00;99.90
11132;DHT22;5620;53.570;9.718;2022-08-03T12:05:51;46.30;99.90
11132;DHT22;5620;53.570;9.718;2022-08-03T12:08:34;46.50;99.90
11132;DHT22;5620;53.570;9.718;2022-08-03T12:11:03;46.50;99.90
11132;DHT22;5620;53.570;9.718;2022-08-03T12:13:55;46.90;99.90
11132;DHT22;5620;53.570;9.718;2022-08-03T12:16:24;47.30;99.90
11132;DHT22;5620;53.570;9.718;2022-08-03T12:18:59;47.40;99.90
11132;DHT22;5620;53.570;9.718;2022-08-03T12:21:27;47.30;99.90
11132;DHT22;5620;53.570;9.718;2022-08-03T12:23:59;47.10;99.90
11132;DHT22;5620;53.570;9.718;2022-08-03T12:26:41;46.90;99.90
11132;DHT22;5620;53.570;9.718;2022-08-03T12:29:16;47.40;99.90
11132;DHT22;5620;53.570;9.718;2022-08-03T12:31:43;47.60;99.90
11132;DHT22;5620;53.570;9.718;2022-08-03T12:34:10;47.40;99.90
11132;DHT22;5620;53.570;9.718;2022-08-03T12:36:51;47.40;99.90
11132;DHT22;5620;53.570;9.718;2022-08-03T12:39:22;47.40;99.90
11132;DHT22;5620;53.570;9.718;2022-08-03T12:41:56;47.70;99.90
11132;DHT22;5620;53.570;9.718;2022-08-03T12:44:34;47.90;99.90
11132;DHT22;5620;53.570;9.718;2022-08-03T12:47:12;47.90;99.90
11132;DHT22;5620;53.570;9.718;2022-08-03T12:49:56;48.40;99.90
11132;DHT22;5620;53.570;9.718;2022-08-03T12:52:23;49.00;99.90
11132;DHT22;5620;53.570;9.718;2022-08-03T12:54:58;49.40;99.90
11132;DHT22;5620;53.570;9.718;2022-08-03T12:57:24;50.20;99.90
11132;DHT22;5620;53.570;9.718;2022-08-03T12:59:52;51.30;99.90
11132;DHT22;5620;53.570;9.718;2022-08-03T13:02:22;51.40;99.90
11132;DHT22;5620;53.570;9.718;2022-08-03T13:05:10;51.30;99.90
11132;DHT22;5620;53.570;9.718;2022-08-03T13:07:41;52.50;99.90
11132;DHT22;5620;53.570;9.718;2022-08-03T13:10:32;53.50;99.90
11132;DHT22;5620;53.570;9.718;2022-08-03T13:12:59;53.70;99.90
11132;DHT22;5620;53.570;9.718;2022-08-03T13:15:28;53.50;99.90
11132;DHT22;5620;53.570;9.718;2022-08-03T13:17:58;53.20;99.90
11132;DHT22;5620;53.570;9.718;2022-08-03T13:20:25;53.10;99.90
11132;DHT22;5620;53.570;9.718;2022-08-03T13:22:54;53.20;99.90
11132;DHT22;5620;53.570;9.718;2022-08-03T13:25:22;53.00;99.90
11132;DHT22;5620;53.570;9.718;2022-08-03T13:27:50;53.40;99.90
11132;DHT22;5620;53.570;9.718;2022-08-03T13:30:17;53.70;99.90
11132;DHT22;5620;53.570;9.718;2022-08-03T13:32:46;53.60;99.90
11132;DHT22;5620;53.570;9.718;2022-08-03T13:35:13;54.10;99.90
11132;DHT22;5620;53.570;9.718;2022-08-03T13:37:40;54.10;99.90
11132;DHT22;5620;53.570;9.718;2022-08-03T13:40:09;53.50;99.90
11132;DHT22;5620;53.570;9.718;2022-08-03T13:42:37;53.10;99.90
11132;DHT22;5620;53.570;9.718;2022-08-03T13:45:03;52.60;99.90
11132;DHT22;5620;53.570;9.718;2022-08-03T13:47:34;52.40;99.90
11132;DHT22;5620;53.570;9.718;2022-08-03T13:50:01;52.60;99.90
11132;DHT22;5620;53.570;9.718;2022-08-03T13:52:29;52.80;99.90
11132;DHT22;5620;53.570;9.718;2022-08-03T13:54:57;53.10;99.90
11132;DHT22;5620;53.570;9.718;2022-08-03T13:57:24;53.30;99.90
11132;DHT22;5620;53.570;9.718;2022-08-03T13:59:51;53.50;99.90
11132;DHT22;5620;53.570;9.718;2022-08-03T14:02:18;53.70;99.90
11132;DHT22;5620;53.570;9.718;2022-08-03T14:04:44;54.50;99.90
11132;DHT22;5620;53.570;9.718;2022-08-03T14:07:12;54.90;99.90
11132;DHT22;5620;53.570;9.718;2022-08-03T14:09:39;55.00;99.90
11132;DHT22;5620;53.570;9.718;2022-08-03T14:12:07;55.20;99.90
11132;DHT22;5620;53.570;9.718;2022-08-03T14:14:35;55.30;99.90
11132;DHT22;5620;53.570;9.718;2022-08-03T14:17:05;55.60;99.90
11132;DHT22;5620;53.570;9.718;2022-08-03T14:19:31;55.40;99.90
11132;DHT22;5620;53.570;9.718;2022-08-03T14:21:57;55.80;99.90
11132;DHT22;5620;53.570;9.718;2022-08-03T14:24:24;55.80;99.90
11132;DHT22;5620;53.570;9.718;2022-08-03T14:26:52;56.10;99.90
11132;DHT22;5620;53.570;9.718;2022-08-03T14:29:18;56.30;99.90
11132;DHT22;5620;53.570;9.718;2022-08-03T14:31:44;56.30;99.90
11132;DHT22;5620;53.570;9.718;2022-08-03T14:34:10;56.10;99.90
11132;DHT22;5620;53.570;9.718;2022-08-03T14:36:38;55.80;99.90
11132;DHT22;5620;53.570;9.718;2022-08-03T14:39:05;55.80;99.90
11132;DHT22;5620;53.570;9.718;2022-08-03T14:41:32;55.90;99.90
11132;DHT22;5620;53.570;9.718;2022-08-03T14:43:59;56.30;99.90
11132;DHT22;5620;53.570;9.718;2022-08-03T14:46:26;56.40;99.90
11132;DHT22;5620;53.570;9.718;2022-08-03T14:48:53;56.60;99.90
11132;DHT22;5620;53.570;9.718;2022-08-03T14:51:19;56.90;99.90
11132;DHT22;5620;53.570;9.718;2022-08-03T14:53:47;57.00;99.90
11132;DHT22;5620;53.570;9.718;2022-08-03T14:56:18;57.10;99.90
11132;DHT22;5620;53.570;9.718;2022-08-03T14:58:47;57.90;99.90
11132;DHT22;5620;53.570;9.718;2022-08-03T15:01:15;58.20;99.90
11132;DHT22;5620;53.570;9.718;2022-08-03T15:03:42;56.10;99.90
11132;DHT22;5620;53.570;9.718;2022-08-03T15:06:08;55.70;99.90
11132;DHT22;5620;53.570;9.718;2022-08-03T15:08:38;56.70;99.90
11132;DHT22;5620;53.570;9.718;2022-08-03T15:11:06;57.50;99.90
11132;DHT22;5620;53.570;9.718;2022-08-03T15:13:33;58.70;99.90
11132;DHT22;5620;53.570;9.718;2022-08-03T15:16:00;59.60;99.90
11132;DHT22;5620;53.570;9.718;2022-08-03T15:18:27;59.60;99.90
11132;DHT22;5620;53.570;9.718;2022-08-03T15:20:53;58.30;99.90
11132;DHT22;5620;53.570;9.718;2022-08-03T15:23:20;57.40;99.90
11132;DHT22;5620;53.570;9.718;2022-08-03T15:25:48;57.00;99.90
11132;DHT22;5620;53.570;9.718;2022-08-03T15:28:15;54.50;99.90
11132;DHT22;5620;53.570;9.718;2022-08-03T15:30:42;51.40;99.90
11132;DHT22;5620;53.570;9.718;2022-08-03T15:33:10;51.50;99.90
11132;DHT22;5620;53.570;9.718;2022-08-03T15:35:36;52.80;99.90
11132;DHT22;5620;53.570;9.718;2022-08-03T15:38:04;53.90;99.90
11132;DHT22;5620;53.570;9.718;2022-08-03T15:40:31;54.40;99.90
11132;DHT22;5620;53.570;9.718;2022-08-03T15:43:01;54.90;99.90
11132;DHT22;5620;53.570;9.718;2022-08-03T15:45:27;54.40;99.90
11132;DHT22;5620;53.570;9.718;2022-08-03T15:47:57;54.70;99.90
11132;DHT22;5620;53.570;9.718;2022-08-03T15:50:25;54.80;99.90
11132;DHT22;5620;53.570;9.718;2022-08-03T15:52:54;54.70;99.90
11132;DHT22;5620;53.570;9.718;2022-08-03T15:55:21;54.10;99.90
11132;DHT22;5620;53.570;9.718;2022-08-03T15:57:49;53.50;99.90
11132;DHT22;5620;53.570;9.718;2022-08-03T16:00:16;53.20;99.90
11132;DHT22;5620;53.570;9.718;2022-08-03T16:02:44;52.50;99.90
11132;DHT22;5620;53.570;9.718;2022-08-03T16:05:12;51.60;99.90
11132;DHT22;5620;53.570;9.718;2022-08-03T16:07:40;50.90;99.90
11132;DHT22;5620;53.570;9.718;2022-08-03T16:10:08;49.80;99.90
11132;DHT22;5620;53.570;9.718;2022-08-03T16:12:34;49.10;99.90
11132;DHT22;5620;53.570;9.718;2022-08-03T16:15:02;49.10;99.90
11132;DHT22;5620;53.570;9.718;2022-08-03T16:17:30;49.10;99.90
11132;DHT22;5620;53.570;9.718;2022-08-03T16:20:11;48.10;99.90
11132;DHT22;5620;53.570;9.718;2022-08-03T16:22:46;47.30;99.90
11132;DHT22;5620;53.570;9.718;2022-08-03T16:25:16;45.80;99.90
11132;DHT22;5620;53.570;9.718;2022-08-03T16:27:44;44.80;99.90